Clearwater, British Columbia

Past 24 Hour Conditions

This table is a summary of hourly weather conditions for the past 24 hours. This summary includes the following parameters: temperature, humidity, dew point, wind speed and direction, air pressure, visibility and/or wind chill and humidex.
Date / Time
(PDT)
Conditions Temp (°F) Humidity (%) Dew Point (°F) Wind (mph) Pressure (inches) Visibility (miles)
16 September 2014
14:00 N/A 75 31 43 SSE 2 29.8 N/A
13:00 N/A 71 35 42 SW 2 29.8 N/A
12:00 N/A 66 42 42 S 2 29.9 N/A
11:00 N/A 61 51 43 WSW 2 29.9 N/A
10:00 N/A 57 62 44 calm 29.9 N/A
9:00 N/A 51 76 44 calm 29.9 N/A
8:00 N/A 45 88 42 ESE 2 29.9 N/A
7:00 N/A 39   90 37 calm 29.9 N/A
6:00 N/A 40 90 38 calm 29.9 N/A
5:00 N/A 42 90 39 calm 29.9 N/A
4:00 N/A 42 90 39 calm 29.9 N/A
3:00 N/A 44 88 41 calm 29.9 N/A
2:00 N/A 44 88 41 calm 29.9 N/A
1:00 N/A 47 86 42 calm 29.9 N/A
00:00 N/A 47 86 43 calm 29.9 N/A
15 September 2014
23:00 N/A 49 83 44 calm 29.9 N/A
22:00 N/A 51 80 46 calm 29.9 N/A
21:00 N/A 55 73 46 calm 29.8 N/A
20:00 N/A 58 68 48 calm 29.8 N/A
19:00 N/A 65 56 49 NNW 2 29.8 N/A
18:00 N/A 74 41 49 WNW 2 29.8 N/A
17:00 N/A 80   26 42 SE 2 29.8 N/A
16:00 N/A 79 27 42 SW 3 29.8 N/A
15:00 N/A 78 29 43 calm 29.9 N/A
14:00 N/A 73 33 42 SE 2 29.9 N/A
N/A
Not available
 ↑ 
Highest temperature
 ↓ 
Lowest temperature

If you require additional historical weather information, please visit Climate Data Online.